Fredonia, New York
Current Conditions -  °F | °C
As of 9:53 AM on Sunday 23 Nov 2014 (Local Time) from KDKK Reporting Station
Light Rain Light Rain  
Wind Chill: 37°   Ceiling: 4000
Heat Index: 44°   Visibility: 10mi
Dew Point: 36°   Wind: 14mph
Humidity: 73%   Direction: 190°S
Pressure: 30.05"   Gusts: 24mph
Location:  42.44°N, 79.33°W
Report Text: KDKK 231453Z AUTO 19012G21KT 10SM -RA OVC040 07/02 A3005 RMK AO2 SLP181 P0000 60000 T00670022 51011
Loading
Personal Weather Stations






























Interactive Weather Map New forecast layout! Learn more

10-Day Weather Forecast

Advertisements
Track Severe Weather on mobile